createdAt,value
2022-10-23T00:01:18.862Z,84.03
2022-10-23T00:03:47.877Z,84.09
2022-10-23T00:06:15.634Z,85.20
2022-10-23T00:08:44.290Z,84.70
2022-10-23T00:11:15.143Z,84.60
2022-10-23T00:13:43.300Z,84.70
2022-10-23T00:16:11.212Z,85.55
2022-10-23T00:18:39.291Z,86.12
2022-10-23T00:21:11.282Z,85.89
2022-10-23T00:23:39.193Z,85.79
2022-10-23T00:26:08.464Z,86.27
2022-10-23T00:28:36.179Z,85.20
2022-10-23T00:31:05.622Z,86.72
2022-10-23T00:33:33.524Z,85.82
2022-10-23T00:36:01.280Z,86.21
2022-10-23T00:38:29.062Z,86.16
2022-10-23T00:40:56.840Z,87.11
2022-10-23T00:43:27.208Z,86.24
2022-10-23T00:45:55.833Z,86.42
2022-10-23T00:48:23.997Z,86.55
2022-10-23T00:50:52.533Z,87.01
2022-10-23T00:53:23.312Z,86.74
2022-10-23T00:55:54.055Z,87.17
2022-10-23T00:58:22.141Z,87.55
2022-10-23T01:00:55.524Z,85.68
2022-10-23T01:03:27.810Z,85.61
2022-10-23T01:06:15.774Z,85.25
2022-10-23T01:08:55.507Z,84.90
2022-10-23T01:11:39.079Z,84.84
2022-10-23T01:14:18.190Z,85.57
2022-10-23T01:16:57.634Z,85.64
2022-10-23T01:19:57.943Z,85.80
2022-10-23T01:22:44.659Z,86.13
2022-10-23T01:25:37.492Z,85.43
2022-10-23T01:28:11.672Z,85.64
2022-10-23T01:30:44.717Z,86.61
2022-10-23T01:33:33.300Z,87.01
2022-10-23T01:36:08.905Z,86.46
2022-10-23T01:38:46.741Z,86.20
2022-10-23T01:41:35.930Z,86.55
2022-10-23T01:44:40.394Z,86.32
2022-10-23T01:47:11.790Z,86.97
2022-10-23T01:50:02.761Z,86.60
2022-10-23T01:52:31.030Z,86.24
2022-10-23T01:55:01.440Z,86.39
2022-10-23T01:57:33.888Z,86.69
2022-10-23T02:00:07.529Z,87.00
2022-10-23T02:02:52.816Z,87.10
2022-10-23T02:05:26.632Z,87.32
2022-10-23T02:07:56.720Z,87.76
2022-10-23T02:11:06.247Z,88.12
2022-10-23T02:13:46.390Z,88.02
2022-10-23T02:16:43.909Z,87.50
2022-10-23T02:19:42.636Z,87.49
2022-10-23T02:22:23.401Z,88.34
2022-10-23T02:25:01.235Z,89.17
2022-10-23T02:27:40.848Z,88.61
2022-10-23T02:30:12.027Z,88.17
2022-10-23T02:32:44.953Z,88.23
2022-10-23T02:35:14.157Z,88.44
2022-10-23T02:37:42.404Z,88.92
2022-10-23T02:40:11.827Z,88.41
2022-10-23T02:43:23.311Z,88.02
2022-10-23T02:46:10.220Z,88.56
2022-10-23T02:48:51.688Z,88.87
2022-10-23T02:51:26.270Z,88.38
2022-10-23T02:53:59.893Z,88.55
2022-10-23T02:56:38.527Z,87.84
2022-10-23T02:59:18.385Z,87.67
2022-10-23T03:01:52.185Z,87.83
2022-10-23T03:04:24.162Z,87.75
2022-10-23T03:06:52.249Z,87.82
2022-10-23T03:09:20.064Z,87.74
2022-10-23T03:11:47.835Z,87.65
2022-10-23T03:14:15.651Z,87.28
2022-10-23T03:16:43.426Z,87.94
2022-10-23T03:21:45.149Z,87.15
2022-10-23T03:24:13.098Z,87.51
2022-10-23T03:26:43.707Z,86.91
2022-10-23T03:29:11.444Z,87.56
2022-10-23T03:31:45.121Z,87.67
2022-10-23T03:34:13.947Z,88.00
2022-10-23T03:36:42.383Z,87.10
2022-10-23T03:39:11.316Z,87.74
2022-10-23T03:41:39.019Z,87.59
2022-10-23T03:44:06.768Z,87.34
2022-10-23T03:46:34.641Z,87.51
2022-10-23T03:49:02.451Z,87.32
2022-10-23T03:51:30.319Z,88.05
2022-10-23T03:53:58.636Z,88.17
2022-10-23T03:56:26.573Z,88.48
2022-10-23T03:58:54.335Z,88.42
2022-10-23T04:01:25.224Z,88.38
2022-10-23T04:03:53.227Z,89.43
2022-10-23T04:06:23.567Z,89.31
2022-10-23T04:08:55.956Z,89.04
2022-10-23T04:11:23.858Z,89.66
2022-10-23T04:13:51.599Z,89.34
2022-10-23T04:16:19.397Z,89.52
2022-10-23T04:18:47.277Z,89.71
2022-10-23T04:21:15.112Z,89.14
2022-10-23T04:23:43.141Z,88.99
2022-10-23T04:26:16.402Z,88.84
2022-10-23T04:28:44.199Z,88.38
2022-10-23T04:31:12.504Z,88.08
2022-10-23T04:33:42.375Z,88.35
2022-10-23T04:36:10.364Z,87.95
2022-10-23T04:38:38.088Z,88.11
2022-10-23T04:41:07.430Z,87.93
2022-10-23T04:43:35.486Z,87.80
2022-10-23T04:46:04.458Z,88.51
2022-10-23T04:48:32.629Z,88.67
2022-10-23T04:51:19.341Z,88.57
2022-10-23T04:54:05.552Z,88.94
2022-10-23T04:56:56.501Z,88.03
2022-10-23T04:59:25.322Z,88.35
2022-10-23T05:01:53.083Z,89.16
2022-10-23T05:04:20.964Z,88.77
2022-10-23T05:07:06.944Z,89.06
2022-10-23T05:09:50.920Z,88.90
2022-10-23T05:12:27.803Z,89.21
2022-10-23T05:14:55.867Z,90.03
2022-10-23T05:17:39.579Z,90.05
2022-10-23T05:20:12.884Z,89.90
2022-10-23T05:22:43.046Z,89.96
2022-10-23T05:25:13.732Z,90.87
2022-10-23T05:27:46.466Z,90.70
2022-10-23T05:30:16.596Z,90.99
2022-10-23T05:32:45.117Z,90.58
2022-10-23T05:35:22.237Z,90.48
2022-10-23T05:37:54.370Z,91.13
2022-10-23T05:40:25.223Z,91.08
2022-10-23T05:42:59.443Z,90.63
2022-10-23T05:45:41.864Z,91.24
2022-10-23T05:48:34.952Z,91.07
2022-10-23T05:51:23.671Z,91.58
2022-10-23T05:54:17.758Z,91.75
2022-10-23T05:57:18.761Z,91.85
2022-10-23T05:59:50.488Z,91.71
2022-10-23T06:02:27.308Z,91.31
2022-10-23T06:05:02.939Z,91.48
2022-10-23T06:07:47.665Z,92.13
2022-10-23T06:10:15.610Z,91.48
2022-10-23T06:12:46.711Z,92.06
2022-10-23T06:15:17.420Z,91.56
2022-10-23T06:18:06.058Z,92.42
2022-10-23T06:20:37.961Z,91.34
2022-10-23T06:23:23.112Z,91.81
2022-10-23T06:26:29.234Z,91.24
2022-10-23T06:29:02.212Z,91.50
2022-10-23T06:31:30.649Z,90.93
2022-10-23T06:33:59.894Z,90.89
2022-10-23T06:36:29.958Z,90.34
2022-10-23T06:39:10.348Z,89.59
2022-10-23T06:42:01.445Z,90.07
2022-10-23T06:44:47.880Z,88.99
2022-10-23T06:47:24.982Z,88.63
2022-10-23T06:50:14.595Z,88.40
2022-10-23T06:52:47.293Z,87.99
2022-10-23T06:55:18.569Z,87.20
2022-10-23T06:57:47.288Z,86.56
2022-10-23T07:00:15.464Z,86.07
2022-10-23T07:02:53.461Z,85.47
2022-10-23T07:05:21.416Z,85.16
2022-10-23T07:07:49.223Z,84.13
2022-10-23T07:10:23.196Z,83.01
2022-10-23T07:13:01.094Z,83.44
2022-10-23T07:15:41.077Z,82.26
2022-10-23T07:18:14.768Z,81.23
2022-10-23T07:21:01.273Z,80.75
2022-10-23T07:23:30.976Z,80.88
2022-10-23T07:26:10.321Z,82.50
2022-10-23T07:28:38.962Z,81.89
2022-10-23T07:31:06.756Z,81.18
2022-10-23T07:33:57.501Z,81.14
2022-10-23T07:36:25.418Z,80.60
2022-10-23T07:38:53.313Z,80.59
2022-10-23T07:41:21.856Z,80.10
2022-10-23T07:43:49.652Z,78.53
2022-10-23T07:46:17.535Z,77.14
2022-10-23T07:48:45.337Z,76.01
2022-10-23T07:51:16.040Z,74.53
2022-10-23T07:53:50.412Z,73.17
2022-10-23T07:56:56.693Z,72.60
2022-10-23T07:59:29.369Z,71.59
2022-10-23T08:02:01.455Z,71.00
2022-10-23T08:04:34.030Z,69.85
2022-10-23T08:07:09.559Z,68.75
2022-10-23T08:09:42.562Z,68.70
2022-10-23T08:12:10.494Z,68.91
2022-10-23T08:14:38.696Z,67.65
2022-10-23T08:17:09.998Z,69.57
2022-10-23T08:20:04.537Z,68.59
2022-10-23T08:22:39.303Z,69.22
2022-10-23T08:25:07.618Z,68.90
2022-10-23T08:27:35.359Z,68.14
2022-10-23T08:30:03.515Z,68.81
2022-10-23T08:32:31.730Z,68.50
2022-10-23T08:35:00.873Z,67.60
2022-10-23T08:37:31.969Z,68.57
2022-10-23T08:40:00.034Z,67.82
2022-10-23T08:42:57.277Z,69.41
2022-10-23T08:45:47.504Z,69.29
2022-10-23T08:49:12.319Z,67.25
2022-10-23T08:51:54.995Z,66.54
2022-10-23T08:54:55.343Z,65.92
2022-10-23T08:57:24.289Z,64.58
2022-10-23T09:00:14.999Z,64.62
2022-10-23T09:02:48.809Z,65.17
2022-10-23T09:05:35.290Z,63.93
2022-10-23T09:08:05.646Z,64.35
2022-10-23T09:10:42.870Z,64.79
2022-10-23T09:13:28.577Z,63.83
2022-10-23T09:16:23.299Z,64.58
2022-10-23T09:18:51.019Z,63.06
2022-10-23T09:21:18.934Z,61.09
2022-10-23T09:23:46.702Z,60.40
2022-10-23T09:26:18.754Z,59.68
2022-10-23T09:28:49.569Z,59.49
2022-10-23T09:31:18.257Z,58.13
2022-10-23T09:33:59.923Z,58.58
2022-10-23T09:36:29.634Z,59.08
2022-10-23T09:39:00.394Z,59.92
2022-10-23T09:41:31.080Z,59.43
2022-10-23T09:44:07.769Z,60.33
2022-10-23T09:46:43.630Z,59.27
2022-10-23T09:49:27.363Z,58.39
2022-10-23T09:52:06.271Z,57.33
2022-10-23T09:54:38.644Z,59.07
2022-10-23T09:57:18.262Z,56.13
2022-10-23T09:59:52.024Z,56.20
2022-10-23T10:02:29.425Z,55.86
2022-10-23T10:05:24.377Z,55.84
2022-10-23T10:08:00.153Z,56.02
2022-10-23T10:10:40.033Z,57.98
2022-10-23T10:13:30.588Z,58.95
2022-10-23T10:16:44.598Z,58.94
2022-10-23T10:19:28.262Z,59.43
2022-10-23T10:22:20.535Z,59.66
2022-10-23T10:24:59.513Z,60.72
2022-10-23T10:27:46.011Z,60.36
2022-10-23T10:30:16.649Z,58.79
2022-10-23T10:32:52.043Z,59.25
2022-10-23T10:35:27.060Z,58.84
2022-10-23T10:38:26.870Z,59.37
2022-10-23T10:41:19.158Z,59.40
2022-10-23T10:44:08.172Z,60.83
2022-10-23T10:46:53.957Z,59.50
2022-10-23T10:49:31.820Z,57.62
2022-10-23T10:52:37.971Z,59.80
2022-10-23T10:55:33.985Z,58.46
2022-10-23T10:58:11.018Z,58.92
2022-10-23T11:00:38.907Z,58.14
2022-10-23T11:03:39.978Z,57.71
2022-10-23T11:06:16.057Z,57.43
2022-10-23T11:08:57.644Z,59.20
2022-10-23T11:11:41.093Z,59.61
2022-10-23T11:14:26.872Z,59.48
2022-10-23T11:17:06.002Z,57.83
2022-10-23T11:19:41.756Z,57.57
2022-10-23T11:22:43.242Z,58.87
2022-10-23T11:25:44.988Z,58.00
2022-10-23T11:28:30.754Z,55.99
2022-10-23T11:31:32.963Z,56.44
2022-10-23T11:34:12.925Z,57.50
2022-10-23T11:36:53.133Z,59.45
2022-10-23T11:39:25.172Z,58.04
2022-10-23T11:42:11.919Z,57.95
2022-10-23T11:44:47.122Z,56.60
2022-10-23T11:47:58.306Z,54.62
2022-10-23T11:50:38.308Z,54.16
2022-10-23T11:53:23.405Z,53.92
2022-10-23T11:56:02.084Z,54.85
2022-10-23T11:58:54.018Z,54.36
2022-10-23T12:01:43.277Z,54.86
2022-10-23T12:04:45.673Z,55.27
2022-10-23T12:07:30.415Z,54.18
2022-10-23T12:10:40.673Z,54.29
2022-10-23T12:13:36.628Z,55.11
2022-10-23T12:16:10.212Z,56.00
2022-10-23T12:18:51.045Z,55.77
2022-10-23T12:21:22.274Z,53.81
2022-10-23T12:24:13.184Z,54.68
2022-10-23T12:26:50.956Z,53.26
2022-10-23T12:29:27.614Z,52.21
2022-10-23T12:32:07.859Z,53.48
2022-10-23T12:34:42.557Z,53.10
2022-10-23T12:37:28.896Z,54.05
2022-10-23T12:39:56.853Z,52.97
2022-10-23T12:42:27.334Z,54.77
2022-10-23T12:45:24.287Z,51.97
2022-10-23T12:47:52.994Z,53.02
2022-10-23T12:50:22.471Z,51.86
2022-10-23T12:52:57.677Z,52.35
2022-10-23T12:55:35.834Z,53.33
2022-10-23T12:58:03.914Z,53.82
2022-10-23T13:00:32.127Z,52.87
2022-10-23T13:03:02.300Z,52.85
2022-10-23T13:05:32.445Z,53.86
2022-10-23T13:08:04.853Z,53.73
2022-10-23T13:10:44.331Z,54.35
2022-10-23T13:13:14.538Z,55.36
2022-10-23T13:15:44.469Z,56.40
2022-10-23T13:18:14.658Z,56.05
2022-10-23T13:20:44.043Z,57.01
2022-10-23T13:23:18.863Z,57.02
2022-10-23T13:25:57.537Z,56.09
2022-10-23T13:28:43.181Z,56.25
2022-10-23T13:31:10.957Z,57.42
2022-10-23T13:33:45.867Z,56.26
2022-10-23T13:36:16.897Z,57.26
2022-10-23T13:39:02.222Z,56.59
2022-10-23T13:41:47.826Z,57.50
2022-10-23T13:44:21.230Z,57.38
2022-10-23T13:46:49.846Z,56.02
2022-10-23T13:49:18.602Z,57.17
2022-10-23T13:51:55.563Z,58.09
2022-10-23T13:54:25.573Z,58.48
2022-10-23T13:56:55.198Z,58.16
2022-10-23T13:59:23.539Z,57.64
2022-10-23T14:01:52.275Z,57.69
2022-10-23T14:04:21.113Z,57.48
2022-10-23T14:06:58.688Z,56.48
2022-10-23T14:09:26.673Z,54.96
2022-10-23T14:11:54.466Z,57.44
2022-10-23T14:14:22.242Z,56.56
2022-10-23T14:16:50.018Z,56.51
2022-10-23T14:19:17.755Z,56.90
2022-10-23T14:21:45.523Z,56.63
2022-10-23T14:24:14.840Z,57.29
2022-10-23T14:26:43.349Z,56.93
2022-10-23T14:29:18.702Z,57.90
2022-10-23T14:31:49.312Z,57.80
2022-10-23T14:34:17.230Z,58.60
2022-10-23T14:36:50.238Z,58.70
2022-10-23T14:39:24.410Z,59.31
2022-10-23T14:41:52.126Z,58.90
2022-10-23T14:44:19.883Z,59.78
2022-10-23T14:46:47.713Z,58.58
2022-10-23T14:49:15.485Z,58.80
2022-10-23T14:51:43.284Z,59.06
2022-10-23T14:54:11.024Z,59.30
2022-10-23T14:56:42.360Z,59.09
2022-10-23T14:59:11.755Z,59.63
2022-10-23T15:01:45.132Z,59.36
2022-10-23T15:04:14.865Z,60.36
2022-10-23T15:06:43.930Z,60.01
2022-10-23T15:09:11.689Z,60.48
2022-10-23T15:11:39.861Z,59.73
2022-10-23T15:14:07.741Z,60.43
2022-10-23T15:16:41.433Z,60.46
2022-10-23T15:19:13.457Z,60.44
2022-10-23T15:21:44.999Z,59.86
2022-10-23T15:24:12.836Z,60.64
2022-10-23T15:26:43.212Z,60.63
2022-10-23T15:29:12.546Z,61.25
2022-10-23T15:31:43.259Z,63.20
2022-10-23T15:34:14.564Z,62.65
2022-10-23T15:36:43.315Z,63.18
2022-10-23T15:39:13.211Z,63.15
2022-10-23T15:41:43.446Z,64.34
2022-10-23T15:44:17.847Z,63.40
2022-10-23T15:46:46.005Z,63.86
2022-10-23T15:49:13.842Z,64.60
2022-10-23T15:51:42.714Z,65.24
2022-10-23T15:54:17.411Z,65.57
2022-10-23T15:56:51.749Z,65.83
2022-10-23T15:59:24.041Z,65.92
2022-10-23T16:01:52.543Z,67.78
2022-10-23T16:04:20.578Z,67.37
2022-10-23T16:06:49.327Z,67.32
2022-10-23T16:09:17.500Z,67.51
2022-10-23T16:11:45.535Z,68.27
2022-10-23T16:14:17.609Z,68.20
2022-10-23T16:16:45.859Z,68.42
2022-10-23T16:19:13.780Z,68.46
2022-10-23T16:21:42.161Z,68.60
2022-10-23T16:24:10.398Z,68.94
2022-10-23T16:26:40.866Z,69.42
2022-10-23T16:29:09.667Z,69.67
2022-10-23T16:31:37.786Z,70.29
2022-10-23T16:34:06.523Z,69.74
2022-10-23T16:36:35.447Z,69.62
2022-10-23T16:39:22.092Z,70.22
2022-10-23T16:42:08.681Z,71.03
2022-10-23T16:44:51.709Z,71.46
2022-10-23T16:47:19.763Z,71.84
2022-10-23T16:49:47.614Z,71.64
2022-10-23T16:52:15.984Z,70.81
2022-10-23T16:54:44.614Z,70.82
2022-10-23T16:57:12.455Z,71.50
2022-10-23T16:59:40.354Z,72.40
2022-10-23T17:02:11.189Z,72.99
2022-10-23T17:04:40.180Z,72.91
2022-10-23T17:07:08.175Z,73.55
2022-10-23T17:09:36.645Z,73.08
2022-10-23T17:12:04.632Z,73.41
2022-10-23T17:14:32.663Z,74.04
2022-10-23T17:17:05.778Z,73.89
2022-10-23T17:19:44.536Z,74.51
2022-10-23T17:22:14.037Z,74.95
2022-10-23T17:24:44.317Z,76.02
2022-10-23T17:27:14.121Z,77.30
2022-10-23T17:29:43.089Z,77.90
2022-10-23T17:32:11.130Z,78.62
2022-10-23T17:34:38.943Z,79.46
2022-10-23T17:37:08.855Z,80.38
2022-10-23T17:39:36.730Z,80.66
2022-10-23T17:42:04.664Z,81.35
2022-10-23T17:44:32.513Z,81.83
2022-10-23T17:47:00.247Z,81.90
2022-10-23T17:49:28.087Z,82.18
2022-10-23T17:51:57.666Z,82.57
2022-10-23T17:54:27.070Z,82.68
2022-10-23T17:56:55.250Z,83.93
2022-10-23T17:59:23.279Z,83.47
2022-10-23T18:01:51.297Z,84.24
2022-10-23T18:04:20.715Z,84.61
2022-10-23T18:06:51.180Z,84.95
2022-10-23T18:09:20.250Z,85.18
2022-10-23T18:11:48.662Z,85.10
2022-10-23T18:14:18.680Z,85.70
2022-10-23T18:16:46.884Z,85.42
2022-10-23T18:19:18.450Z,85.82
2022-10-23T18:21:47.918Z,85.83
2022-10-23T18:24:16.494Z,86.18
2022-10-23T18:26:44.806Z,86.26
2022-10-23T18:29:12.941Z,85.98
2022-10-23T18:31:41.645Z,86.32
2022-10-23T18:34:16.927Z,86.54
2022-10-23T18:36:45.396Z,87.07
2022-10-23T18:39:17.082Z,87.30
2022-10-23T18:41:46.680Z,87.55
2022-10-23T18:44:40.093Z,87.87
2022-10-23T18:47:08.540Z,88.35
2022-10-23T18:49:36.417Z,88.30
2022-10-23T18:52:04.536Z,88.23
2022-10-23T18:54:32.459Z,89.06
2022-10-23T18:57:00.366Z,88.65
2022-10-23T18:59:28.604Z,88.65
2022-10-23T19:01:56.822Z,88.89
2022-10-23T19:04:24.802Z,88.73
2022-10-23T19:06:52.863Z,88.29
2022-10-23T19:09:21.951Z,88.43
2022-10-23T19:11:49.896Z,88.07
2022-10-23T19:14:17.763Z,87.88
2022-10-23T19:17:07.961Z,87.78
2022-10-23T19:19:43.544Z,88.19
2022-10-23T19:22:12.747Z,88.37
2022-10-23T19:24:46.042Z,88.40
2022-10-23T19:27:14.141Z,88.25
2022-10-23T19:29:45.420Z,88.00
2022-10-23T19:32:14.832Z,87.90
2022-10-23T19:34:45.615Z,88.18
2022-10-23T19:39:46.834Z,88.45
2022-10-23T19:42:15.026Z,87.86
2022-10-23T19:44:42.747Z,89.05
2022-10-23T19:47:11.754Z,88.38
2022-10-23T19:49:39.700Z,88.33
2022-10-23T19:52:07.800Z,88.39
2022-10-23T19:54:37.930Z,88.25
2022-10-23T19:57:05.709Z,88.47
2022-10-23T19:59:34.082Z,88.01
2022-10-23T20:02:02.524Z,88.75
2022-10-23T20:04:30.744Z,88.98
2022-10-23T20:07:01.936Z,88.59
2022-10-23T20:09:31.027Z,89.12
2022-10-23T20:12:00.647Z,89.57
2022-10-23T20:14:28.639Z,89.47
2022-10-23T20:16:56.611Z,89.20
2022-10-23T20:19:25.001Z,88.82
2022-10-23T20:21:52.921Z,89.13
2022-10-23T20:24:21.586Z,88.70
2022-10-23T20:26:52.205Z,88.89
2022-10-23T20:29:21.043Z,88.59
2022-10-23T20:31:50.738Z,89.42
2022-10-23T20:34:19.339Z,89.56
2022-10-23T20:36:50.034Z,89.50
2022-10-23T20:39:25.652Z,89.30
2022-10-23T20:41:55.463Z,89.86
2022-10-23T20:44:24.740Z,89.76
2022-10-23T20:46:52.926Z,89.38
2022-10-23T20:49:21.825Z,89.53
2022-10-23T20:51:56.460Z,89.42
2022-10-23T20:54:28.975Z,89.53
2022-10-23T20:57:00.062Z,89.52
2022-10-23T20:59:28.807Z,89.31
2022-10-23T21:01:57.625Z,89.03
2022-10-23T21:04:27.882Z,89.27
2022-10-23T21:07:09.293Z,89.02
2022-10-23T21:10:03.687Z,89.34
2022-10-23T21:12:37.843Z,89.00
2022-10-23T21:15:06.783Z,89.17
2022-10-23T21:17:38.836Z,88.97
2022-10-23T21:20:07.585Z,89.13
2022-10-23T21:22:35.378Z,89.08
2022-10-23T21:25:03.238Z,89.20
2022-10-23T21:27:31.137Z,89.93
2022-10-23T21:29:58.995Z,90.81
2022-10-23T21:32:26.777Z,89.97
2022-10-23T21:34:55.241Z,89.79
2022-10-23T21:37:25.190Z,89.96
2022-10-23T21:39:52.964Z,90.04
2022-10-23T21:42:20.840Z,89.92
2022-10-23T21:44:48.654Z,90.40
2022-10-23T21:47:16.410Z,90.17
2022-10-23T21:49:44.323Z,89.78
2022-10-23T21:52:14.005Z,90.21
2022-10-23T21:54:44.000Z,90.35
2022-10-23T21:57:15.229Z,90.28
2022-10-23T21:59:44.333Z,90.09
2022-10-23T22:02:12.270Z,90.49
2022-10-23T22:04:40.154Z,90.66
2022-10-23T22:07:10.934Z,90.78
2022-10-23T22:09:38.739Z,91.13
2022-10-23T22:12:06.460Z,90.87
2022-10-23T22:14:36.264Z,90.44
2022-10-23T22:17:04.056Z,90.51
2022-10-23T22:19:31.991Z,90.56
2022-10-23T22:21:59.769Z,90.54
2022-10-23T22:24:27.572Z,89.87
2022-10-23T22:26:56.755Z,90.69
2022-10-23T22:29:27.263Z,90.63
2022-10-23T22:31:55.417Z,90.09
2022-10-23T22:34:48.003Z,89.52
2022-10-23T22:37:13.642Z,89.05
2022-10-23T22:39:41.545Z,89.42
2022-10-23T22:42:09.596Z,90.11
2022-10-23T22:44:37.367Z,89.41
2022-10-23T22:47:05.360Z,89.69
2022-10-23T22:49:33.132Z,89.66
2022-10-23T22:52:00.980Z,89.56
2022-10-23T22:54:30.593Z,90.00
2022-10-23T22:56:58.474Z,89.64
2022-10-23T22:59:26.293Z,89.88
2022-10-23T23:01:54.396Z,89.37
2022-10-23T23:04:38.616Z,89.58
2022-10-23T23:07:07.605Z,90.28
2022-10-23T23:09:44.048Z,90.66
2022-10-23T23:12:13.933Z,90.78
2022-10-23T23:14:42.341Z,91.04
2022-10-23T23:17:10.772Z,90.57
2022-10-23T23:19:38.808Z,90.95
2022-10-23T23:22:06.834Z,91.54
2022-10-23T23:24:34.583Z,91.09
2022-10-23T23:27:02.452Z,90.60
2022-10-23T23:29:30.209Z,90.40
2022-10-23T23:31:58.339Z,90.62
2022-10-23T23:34:26.243Z,90.72
2022-10-23T23:36:53.976Z,90.72
2022-10-23T23:39:21.700Z,91.05
2022-10-23T23:41:49.604Z,91.24
2022-10-23T23:44:17.374Z,90.31
2022-10-23T23:46:45.098Z,91.13
2022-10-23T23:49:12.867Z,90.93
2022-10-23T23:51:40.710Z,91.29
2022-10-23T23:54:08.486Z,91.39
2022-10-23T23:56:36.235Z,91.07
2022-10-23T23:59:04.529Z,91.55
